sensor_id;sensor_type;location;lat;lon;timestamp;temperature;humidity
27759;DHT22;15148;48.972;12.794;2024-02-15T00:01:29;6.30;99.90
27759;DHT22;15148;48.972;12.794;2024-02-15T00:06:31;6.30;99.90
27759;DHT22;15148;48.972;12.794;2024-02-15T00:11:33;6.20;99.90
27759;DHT22;15148;48.972;12.794;2024-02-15T00:16:35;6.30;99.90
27759;DHT22;15148;48.972;12.794;2024-02-15T00:21:42;6.20;99.90
27759;DHT22;15148;48.972;12.794;2024-02-15T00:26:44;6.20;99.90
27759;DHT22;15148;48.972;12.794;2024-02-15T00:31:46;6.20;99.90
27759;DHT22;15148;48.972;12.794;2024-02-15T00:36:49;6.20;99.90
27759;DHT22;15148;48.972;12.794;2024-02-15T00:41:51;6.20;99.90
27759;DHT22;15148;48.972;12.794;2024-02-15T00:46:53;6.20;99.90
27759;DHT22;15148;48.972;12.794;2024-02-15T00:51:55;6.20;99.90
27759;DHT22;15148;48.972;12.794;2024-02-15T00:56:57;6.20;99.90
27759;DHT22;15148;48.972;12.794;2024-02-15T01:01:59;6.30;99.90
27759;DHT22;15148;48.972;12.794;2024-02-15T01:07:01;6.30;99.90
27759;DHT22;15148;48.972;12.794;2024-02-15T01:12:04;6.20;99.90
27759;DHT22;15148;48.972;12.794;2024-02-15T01:17:06;6.30;99.90
27759;DHT22;15148;48.972;12.794;2024-02-15T01:22:09;6.30;99.90
27759;DHT22;15148;48.972;12.794;2024-02-15T01:27:11;6.30;99.90
27759;DHT22;15148;48.972;12.794;2024-02-15T01:32:13;6.30;99.90
27759;DHT22;15148;48.972;12.794;2024-02-15T01:37:15;6.40;99.90
27759;DHT22;15148;48.972;12.794;2024-02-15T01:42:17;6.40;99.90
27759;DHT22;15148;48.972;12.794;2024-02-15T01:47:19;6.40;99.90
27759;DHT22;15148;48.972;12.794;2024-02-15T01:52:22;6.30;99.90
27759;DHT22;15148;48.972;12.794;2024-02-15T01:57:24;6.30;99.90
27759;DHT22;15148;48.972;12.794;2024-02-15T02:02:30;6.30;99.90
27759;DHT22;15148;48.972;12.794;2024-02-15T02:07:33;6.40;99.90
27759;DHT22;15148;48.972;12.794;2024-02-15T02:12:35;6.40;99.90
27759;DHT22;15148;48.972;12.794;2024-02-15T02:17:37;6.40;99.90
27759;DHT22;15148;48.972;12.794;2024-02-15T02:22:39;6.40;99.90
27759;DHT22;15148;48.972;12.794;2024-02-15T02:27:42;6.30;99.90
27759;DHT22;15148;48.972;12.794;2024-02-15T02:32:47;6.30;99.90
27759;DHT22;15148;48.972;12.794;2024-02-15T02:37:51;6.40;99.90
27759;DHT22;15148;48.972;12.794;2024-02-15T02:42:55;6.40;99.90
27759;DHT22;15148;48.972;12.794;2024-02-15T02:47:58;6.40;99.90
27759;DHT22;15148;48.972;12.794;2024-02-15T02:53:00;6.40;99.90
27759;DHT22;15148;48.972;12.794;2024-02-15T02:58:02;6.40;99.90
27759;DHT22;15148;48.972;12.794;2024-02-15T03:03:04;6.40;99.90
27759;DHT22;15148;48.972;12.794;2024-02-15T03:08:09;6.40;99.90
27759;DHT22;15148;48.972;12.794;2024-02-15T03:13:11;6.40;99.90
27759;DHT22;15148;48.972;12.794;2024-02-15T03:18:15;6.40;99.90
27759;DHT22;15148;48.972;12.794;2024-02-15T03:23:18;6.40;99.90
27759;DHT22;15148;48.972;12.794;2024-02-15T03:28:20;6.40;99.90
27759;DHT22;15148;48.972;12.794;2024-02-15T03:33:22;6.40;99.90
27759;DHT22;15148;48.972;12.794;2024-02-15T03:38:28;6.40;99.90
27759;DHT22;15148;48.972;12.794;2024-02-15T03:43:31;6.40;99.90
27759;DHT22;15148;48.972;12.794;2024-02-15T03:48:35;6.40;99.90
27759;DHT22;15148;48.972;12.794;2024-02-15T03:53:39;6.40;99.90
27759;DHT22;15148;48.972;12.794;2024-02-15T03:58:41;6.40;99.90
27759;DHT22;15148;48.972;12.794;2024-02-15T04:03:43;6.40;99.90
27759;DHT22;15148;48.972;12.794;2024-02-15T04:08:46;6.40;99.90
27759;DHT22;15148;48.972;12.794;2024-02-15T04:13:48;6.40;99.90
27759;DHT22;15148;48.972;12.794;2024-02-15T04:18:50;6.40;99.90
27759;DHT22;15148;48.972;12.794;2024-02-15T04:23:52;6.40;99.90
27759;DHT22;15148;48.972;12.794;2024-02-15T04:28:56;6.40;99.90
27759;DHT22;15148;48.972;12.794;2024-02-15T04:33:58;6.40;99.90
27759;DHT22;15148;48.972;12.794;2024-02-15T04:39:01;6.40;99.90
27759;DHT22;15148;48.972;12.794;2024-02-15T04:44:04;6.40;99.90
27759;DHT22;15148;48.972;12.794;2024-02-15T04:49:10;6.40;99.90
27759;DHT22;15148;48.972;12.794;2024-02-15T04:54:12;6.40;99.90
27759;DHT22;15148;48.972;12.794;2024-02-15T04:59:15;6.50;99.90
27759;DHT22;15148;48.972;12.794;2024-02-15T05:04:17;6.40;99.90
27759;DHT22;15148;48.972;12.794;2024-02-15T05:09:19;6.40;99.90
27759;DHT22;15148;48.972;12.794;2024-02-15T05:14:21;6.40;99.90
27759;DHT22;15148;48.972;12.794;2024-02-15T05:19:25;6.40;99.90
27759;DHT22;15148;48.972;12.794;2024-02-15T05:24:27;6.40;99.90
27759;DHT22;15148;48.972;12.794;2024-02-15T05:29:29;6.40;99.90
27759;DHT22;15148;48.972;12.794;2024-02-15T05:34:30;6.40;99.90
27759;DHT22;15148;48.972;12.794;2024-02-15T05:39:33;6.40;99.90
27759;DHT22;15148;48.972;12.794;2024-02-15T05:44:35;6.40;99.90
27759;DHT22;15148;48.972;12.794;2024-02-15T05:49:37;6.40;99.90
27759;DHT22;15148;48.972;12.794;2024-02-15T05:54:39;6.40;99.90
27759;DHT22;15148;48.972;12.794;2024-02-15T05:59:43;6.40;99.90
27759;DHT22;15148;48.972;12.794;2024-02-15T06:04:45;6.40;99.90
27759;DHT22;15148;48.972;12.794;2024-02-15T06:09:47;6.50;99.90
27759;DHT22;15148;48.972;12.794;2024-02-15T06:14:49;6.50;99.90
27759;DHT22;15148;48.972;12.794;2024-02-15T06:19:51;6.50;99.90
27759;DHT22;15148;48.972;12.794;2024-02-15T06:24:54;6.50;99.90
27759;DHT22;15148;48.972;12.794;2024-02-15T06:29:55;6.50;99.90
27759;DHT22;15148;48.972;12.794;2024-02-15T06:35:16;6.50;99.90
27759;DHT22;15148;48.972;12.794;2024-02-15T06:40:36;6.50;99.90
27759;DHT22;15148;48.972;12.794;2024-02-15T06:45:39;6.50;99.90
27759;DHT22;15148;48.972;12.794;2024-02-15T06:50:49;6.50;99.90
27759;DHT22;15148;48.972;12.794;2024-02-15T06:55:51;6.50;99.90
27759;DHT22;15148;48.972;12.794;2024-02-15T07:00:53;6.60;99.90
27759;DHT22;15148;48.972;12.794;2024-02-15T07:05:56;6.60;99.90
27759;DHT22;15148;48.972;12.794;2024-02-15T07:10:58;6.70;99.90
27759;DHT22;15148;48.972;12.794;2024-02-15T07:16:00;6.70;99.90
27759;DHT22;15148;48.972;12.794;2024-02-15T07:21:03;6.70;99.90
27759;DHT22;15148;48.972;12.794;2024-02-15T07:26:10;6.70;99.90
27759;DHT22;15148;48.972;12.794;2024-02-15T07:31:14;6.70;99.90
27759;DHT22;15148;48.972;12.794;2024-02-15T07:36:20;6.80;99.90
27759;DHT22;15148;48.972;12.794;2024-02-15T07:41:23;6.80;99.90
27759;DHT22;15148;48.972;12.794;2024-02-15T07:46:26;6.90;99.90
27759;DHT22;15148;48.972;12.794;2024-02-15T07:51:27;6.90;99.90
27759;DHT22;15148;48.972;12.794;2024-02-15T07:56:30;6.90;99.90
27759;DHT22;15148;48.972;12.794;2024-02-15T08:01:32;6.90;99.90
27759;DHT22;15148;48.972;12.794;2024-02-15T08:06:34;7.10;99.90
27759;DHT22;15148;48.972;12.794;2024-02-15T08:11:38;7.10;99.90
27759;DHT22;15148;48.972;12.794;2024-02-15T08:16:42;7.20;99.90
27759;DHT22;15148;48.972;12.794;2024-02-15T08:21:44;7.20;99.90
27759;DHT22;15148;48.972;12.794;2024-02-15T08:26:48;7.20;99.90
27759;DHT22;15148;48.972;12.794;2024-02-15T08:31:50;7.30;99.90
27759;DHT22;15148;48.972;12.794;2024-02-15T08:36:52;7.30;99.90
27759;DHT22;15148;48.972;12.794;2024-02-15T08:41:54;7.40;99.90
27759;DHT22;15148;48.972;12.794;2024-02-15T08:46:56;7.50;99.90
27759;DHT22;15148;48.972;12.794;2024-02-15T08:51:58;7.60;99.90
27759;DHT22;15148;48.972;12.794;2024-02-15T08:57:00;7.60;99.90
27759;DHT22;15148;48.972;12.794;2024-02-15T09:02:03;7.70;99.90
27759;DHT22;15148;48.972;12.794;2024-02-15T09:07:07;7.80;99.90
27759;DHT22;15148;48.972;12.794;2024-02-15T09:12:09;7.90;99.90
27759;DHT22;15148;48.972;12.794;2024-02-15T09:17:11;8.00;99.90
27759;DHT22;15148;48.972;12.794;2024-02-15T09:22:13;8.10;99.90
27759;DHT22;15148;48.972;12.794;2024-02-15T09:27:15;8.20;99.90
27759;DHT22;15148;48.972;12.794;2024-02-15T09:32:17;8.30;99.90
27759;DHT22;15148;48.972;12.794;2024-02-15T09:37:19;8.40;99.90
27759;DHT22;15148;48.972;12.794;2024-02-15T09:42:21;8.50;99.90
27759;DHT22;15148;48.972;12.794;2024-02-15T09:47:26;8.60;99.90
27759;DHT22;15148;48.972;12.794;2024-02-15T09:52:31;8.60;99.90
27759;DHT22;15148;48.972;12.794;2024-02-15T09:57:36;8.60;99.90
27759;DHT22;15148;48.972;12.794;2024-02-15T10:02:42;8.70;99.90
27759;DHT22;15148;48.972;12.794;2024-02-15T10:07:47;8.80;99.90
27759;DHT22;15148;48.972;12.794;2024-02-15T10:12:50;8.90;99.90
27759;DHT22;15148;48.972;12.794;2024-02-15T10:17:57;9.10;99.90
27759;DHT22;15148;48.972;12.794;2024-02-15T10:28:03;9.40;99.90
27759;DHT22;15148;48.972;12.794;2024-02-15T10:33:10;9.40;99.90
27759;DHT22;15148;48.972;12.794;2024-02-15T10:38:12;9.50;99.90
27759;DHT22;15148;48.972;12.794;2024-02-15T10:43:20;9.60;99.90
27759;DHT22;15148;48.972;12.794;2024-02-15T10:48:22;9.60;99.90
27759;DHT22;15148;48.972;12.794;2024-02-15T10:53:28;9.60;99.90
27759;DHT22;15148;48.972;12.794;2024-02-15T10:58:46;9.70;99.90
27759;DHT22;15148;48.972;12.794;2024-02-15T11:03:59;9.80;99.90
27759;DHT22;15148;48.972;12.794;2024-02-15T11:09:02;9.80;99.90
27759;DHT22;15148;48.972;12.794;2024-02-15T11:24:34;10.20;99.90
27759;DHT22;15148;48.972;12.794;2024-02-15T11:35:19;10.50;99.90
27759;DHT22;15148;48.972;12.794;2024-02-15T11:40:29;10.60;99.90
27759;DHT22;15148;48.972;12.794;2024-02-15T11:45:31;10.60;99.90
27759;DHT22;15148;48.972;12.794;2024-02-15T11:50:37;10.80;99.90
27759;DHT22;15148;48.972;12.794;2024-02-15T11:55:40;11.00;99.90
27759;DHT22;15148;48.972;12.794;2024-02-15T12:00:44;11.20;99.90
27759;DHT22;15148;48.972;12.794;2024-02-15T12:06:05;11.40;99.90
27759;DHT22;15148;48.972;12.794;2024-02-15T12:11:25;11.60;99.90
27759;DHT22;15148;48.972;12.794;2024-02-15T12:16:46;11.90;99.90
27759;DHT22;15148;48.972;12.794;2024-02-15T12:22:06;12.10;99.90
27759;DHT22;15148;48.972;12.794;2024-02-15T12:27:10;12.30;99.90
27759;DHT22;15148;48.972;12.794;2024-02-15T12:32:23;12.40;99.90
27759;DHT22;15148;48.972;12.794;2024-02-15T12:37:26;12.50;99.90
27759;DHT22;15148;48.972;12.794;2024-02-15T12:42:28;12.60;99.90
27759;DHT22;15148;48.972;12.794;2024-02-15T12:47:30;12.60;99.90
27759;DHT22;15148;48.972;12.794;2024-02-15T12:52:37;12.60;99.90
27759;DHT22;15148;48.972;12.794;2024-02-15T12:57:45;12.60;99.90
27759;DHT22;15148;48.972;12.794;2024-02-15T13:02:50;12.70;99.90
27759;DHT22;15148;48.972;12.794;2024-02-15T13:07:54;12.80;99.90
27759;DHT22;15148;48.972;12.794;2024-02-15T13:13:04;12.80;99.90
27759;DHT22;15148;48.972;12.794;2024-02-15T13:18:07;12.80;99.90
27759;DHT22;15148;48.972;12.794;2024-02-15T13:23:13;12.70;99.90
27759;DHT22;15148;48.972;12.794;2024-02-15T13:28:24;12.80;99.90
27759;DHT22;15148;48.972;12.794;2024-02-15T13:33:26;12.80;99.90
27759;DHT22;15148;48.972;12.794;2024-02-15T13:38:31;12.90;99.90
27759;DHT22;15148;48.972;12.794;2024-02-15T13:43:33;13.00;99.90
27759;DHT22;15148;48.972;12.794;2024-02-15T13:48:35;13.00;99.90
27759;DHT22;15148;48.972;12.794;2024-02-15T13:53:38;13.10;99.90
27759;DHT22;15148;48.972;12.794;2024-02-15T13:58:40;13.00;99.90
27759;DHT22;15148;48.972;12.794;2024-02-15T14:03:42;13.00;99.90
27759;DHT22;15148;48.972;12.794;2024-02-15T14:08:45;12.80;99.90
27759;DHT22;15148;48.972;12.794;2024-02-15T14:13:48;12.80;99.90
27759;DHT22;15148;48.972;12.794;2024-02-15T14:18:50;12.70;99.90
27759;DHT22;15148;48.972;12.794;2024-02-15T14:23:53;12.70;99.90
27759;DHT22;15148;48.972;12.794;2024-02-15T14:28:55;12.70;99.90
27759;DHT22;15148;48.972;12.794;2024-02-15T14:33:57;12.80;99.90
27759;DHT22;15148;48.972;12.794;2024-02-15T14:38:59;12.80;99.90
27759;DHT22;15148;48.972;12.794;2024-02-15T14:44:01;12.80;99.90
27759;DHT22;15148;48.972;12.794;2024-02-15T14:49:03;12.70;99.90
27759;DHT22;15148;48.972;12.794;2024-02-15T14:54:06;12.60;99.90
27759;DHT22;15148;48.972;12.794;2024-02-15T14:59:08;12.40;99.90
27759;DHT22;15148;48.972;12.794;2024-02-15T15:04:11;12.30;99.90
27759;DHT22;15148;48.972;12.794;2024-02-15T15:09:13;12.20;99.90
27759;DHT22;15148;48.972;12.794;2024-02-15T15:14:34;12.00;99.90
27759;DHT22;15148;48.972;12.794;2024-02-15T15:19:36;11.70;99.90
27759;DHT22;15148;48.972;12.794;2024-02-15T15:24:39;11.50;99.90
27759;DHT22;15148;48.972;12.794;2024-02-15T15:29:41;11.30;99.90
27759;DHT22;15148;48.972;12.794;2024-02-15T15:34:43;11.10;99.90
27759;DHT22;15148;48.972;12.794;2024-02-15T15:39:45;11.00;99.90
27759;DHT22;15148;48.972;12.794;2024-02-15T15:44:47;10.80;99.90
27759;DHT22;15148;48.972;12.794;2024-02-15T15:49:49;10.70;99.90
27759;DHT22;15148;48.972;12.794;2024-02-15T15:54:54;10.50;99.90
27759;DHT22;15148;48.972;12.794;2024-02-15T15:59:57;10.40;99.90
27759;DHT22;15148;48.972;12.794;2024-02-15T16:04:59;10.20;99.90
27759;DHT22;15148;48.972;12.794;2024-02-15T16:10:04;10.00;99.90
27759;DHT22;15148;48.972;12.794;2024-02-15T16:15:07;9.90;99.90
27759;DHT22;15148;48.972;12.794;2024-02-15T16:20:11;9.70;99.90
27759;DHT22;15148;48.972;12.794;2024-02-15T16:25:15;9.60;99.90
27759;DHT22;15148;48.972;12.794;2024-02-15T16:30:18;9.50;99.90
27759;DHT22;15148;48.972;12.794;2024-02-15T16:35:20;9.30;99.90
27759;DHT22;15148;48.972;12.794;2024-02-15T16:40:24;9.20;99.90
27759;DHT22;15148;48.972;12.794;2024-02-15T16:45:27;9.00;99.90
27759;DHT22;15148;48.972;12.794;2024-02-15T16:50:29;8.90;99.90
27759;DHT22;15148;48.972;12.794;2024-02-15T16:55:32;8.80;99.90
27759;DHT22;15148;48.972;12.794;2024-02-15T17:00:34;8.70;99.90
27759;DHT22;15148;48.972;12.794;2024-02-15T17:05:36;8.70;99.90
27759;DHT22;15148;48.972;12.794;2024-02-15T17:10:38;8.60;99.90
27759;DHT22;15148;48.972;12.794;2024-02-15T17:15:42;8.50;99.90
27759;DHT22;15148;48.972;12.794;2024-02-15T17:20:44;8.50;99.90
27759;DHT22;15148;48.972;12.794;2024-02-15T17:25:46;8.50;99.90
27759;DHT22;15148;48.972;12.794;2024-02-15T17:30:48;8.40;99.90
27759;DHT22;15148;48.972;12.794;2024-02-15T17:35:50;8.40;99.90
27759;DHT22;15148;48.972;12.794;2024-02-15T17:40:53;8.40;99.90
27759;DHT22;15148;48.972;12.794;2024-02-15T17:45:55;8.30;99.90
27759;DHT22;15148;48.972;12.794;2024-02-15T17:50:57;8.30;99.90
27759;DHT22;15148;48.972;12.794;2024-02-15T17:55:59;8.20;99.90
27759;DHT22;15148;48.972;12.794;2024-02-15T18:01:02;8.10;99.90
27759;DHT22;15148;48.972;12.794;2024-02-15T18:06:08;8.20;99.90
27759;DHT22;15148;48.972;12.794;2024-02-15T18:11:13;8.10;99.90
27759;DHT22;15148;48.972;12.794;2024-02-15T18:16:15;8.00;99.90
27759;DHT22;15148;48.972;12.794;2024-02-15T18:21:19;8.00;99.90
27759;DHT22;15148;48.972;12.794;2024-02-15T18:26:22;8.00;99.90
27759;DHT22;15148;48.972;12.794;2024-02-15T18:31:24;7.90;99.90
27759;DHT22;15148;48.972;12.794;2024-02-15T18:36:26;7.80;99.90
27759;DHT22;15148;48.972;12.794;2024-02-15T18:41:28;7.70;99.90
27759;DHT22;15148;48.972;12.794;2024-02-15T18:46:30;7.80;99.90
27759;DHT22;15148;48.972;12.794;2024-02-15T18:51:33;7.80;99.90
27759;DHT22;15148;48.972;12.794;2024-02-15T18:56:38;7.70;99.90
27759;DHT22;15148;48.972;12.794;2024-02-15T19:01:40;7.70;99.90
27759;DHT22;15148;48.972;12.794;2024-02-15T19:06:42;7.70;99.90
27759;DHT22;15148;48.972;12.794;2024-02-15T19:11:44;7.60;99.90
27759;DHT22;15148;48.972;12.794;2024-02-15T19:16:46;7.50;99.90
27759;DHT22;15148;48.972;12.794;2024-02-15T19:21:48;7.50;99.90
27759;DHT22;15148;48.972;12.794;2024-02-15T19:26:51;7.50;99.90
27759;DHT22;15148;48.972;12.794;2024-02-15T19:31:53;7.40;99.90
27759;DHT22;15148;48.972;12.794;2024-02-15T19:36:55;7.40;99.90
27759;DHT22;15148;48.972;12.794;2024-02-15T19:42:05;7.40;99.90
27759;DHT22;15148;48.972;12.794;2024-02-15T19:47:08;7.40;99.90
27759;DHT22;15148;48.972;12.794;2024-02-15T19:52:10;7.40;99.90
27759;DHT22;15148;48.972;12.794;2024-02-15T19:57:12;7.30;99.90
27759;DHT22;15148;48.972;12.794;2024-02-15T20:02:14;7.10;99.90
27759;DHT22;15148;48.972;12.794;2024-02-15T20:07:18;7.00;99.90
27759;DHT22;15148;48.972;12.794;2024-02-15T20:12:21;6.80;99.90
27759;DHT22;15148;48.972;12.794;2024-02-15T20:17:23;6.80;99.90
27759;DHT22;15148;48.972;12.794;2024-02-15T20:22:25;6.60;99.90
27759;DHT22;15148;48.972;12.794;2024-02-15T20:27:27;6.70;99.90
27759;DHT22;15148;48.972;12.794;2024-02-15T20:32:33;6.80;99.90
27759;DHT22;15148;48.972;12.794;2024-02-15T20:37:35;6.80;99.90
27759;DHT22;15148;48.972;12.794;2024-02-15T20:42:37;6.70;99.90
27759;DHT22;15148;48.972;12.794;2024-02-15T20:47:40;6.60;99.90
27759;DHT22;15148;48.972;12.794;2024-02-15T20:52:42;6.50;99.90
27759;DHT22;15148;48.972;12.794;2024-02-15T20:57:47;6.40;99.90
27759;DHT22;15148;48.972;12.794;2024-02-15T21:02:49;6.30;99.90
27759;DHT22;15148;48.972;12.794;2024-02-15T21:07:52;6.30;99.90
27759;DHT22;15148;48.972;12.794;2024-02-15T21:12:54;6.30;99.90
27759;DHT22;15148;48.972;12.794;2024-02-15T21:17:57;6.20;99.90
27759;DHT22;15148;48.972;12.794;2024-02-15T21:23:00;6.10;99.90
27759;DHT22;15148;48.972;12.794;2024-02-15T21:28:07;6.00;99.90
27759;DHT22;15148;48.972;12.794;2024-02-15T21:33:09;5.90;99.90
27759;DHT22;15148;48.972;12.794;2024-02-15T21:38:12;5.90;99.90
27759;DHT22;15148;48.972;12.794;2024-02-15T21:43:13;5.80;99.90
27759;DHT22;15148;48.972;12.794;2024-02-15T21:48:17;5.80;99.90
27759;DHT22;15148;48.972;12.794;2024-02-15T21:53:19;5.70;99.90
27759;DHT22;15148;48.972;12.794;2024-02-15T21:58:21;5.70;99.90
27759;DHT22;15148;48.972;12.794;2024-02-15T22:03:23;5.60;99.90
27759;DHT22;15148;48.972;12.794;2024-02-15T22:08:25;5.50;99.90
27759;DHT22;15148;48.972;12.794;2024-02-15T22:13:27;5.40;99.90
27759;DHT22;15148;48.972;12.794;2024-02-15T22:18:31;5.40;99.90
27759;DHT22;15148;48.972;12.794;2024-02-15T22:23:35;5.40;99.90
27759;DHT22;15148;48.972;12.794;2024-02-15T22:28:37;5.30;99.90
27759;DHT22;15148;48.972;12.794;2024-02-15T22:33:38;5.30;99.90
27759;DHT22;15148;48.972;12.794;2024-02-15T22:38:42;5.30;99.90
27759;DHT22;15148;48.972;12.794;2024-02-15T22:43:44;5.30;99.90
27759;DHT22;15148;48.972;12.794;2024-02-15T22:48:46;5.30;99.90
27759;DHT22;15148;48.972;12.794;2024-02-15T22:53:49;5.30;99.90
27759;DHT22;15148;48.972;12.794;2024-02-15T22:58:53;5.30;99.90
27759;DHT22;15148;48.972;12.794;2024-02-15T23:03:55;5.20;99.90
27759;DHT22;15148;48.972;12.794;2024-02-15T23:08:57;5.20;99.90
27759;DHT22;15148;48.972;12.794;2024-02-15T23:13:59;5.20;99.90
27759;DHT22;15148;48.972;12.794;2024-02-15T23:19:01;5.20;99.90
27759;DHT22;15148;48.972;12.794;2024-02-15T23:24:04;5.10;99.90
27759;DHT22;15148;48.972;12.794;2024-02-15T23:29:06;5.00;99.90
27759;DHT22;15148;48.972;12.794;2024-02-15T23:34:08;5.00;99.90
27759;DHT22;15148;48.972;12.794;2024-02-15T23:39:10;5.00;99.90
27759;DHT22;15148;48.972;12.794;2024-02-15T23:44:37;5.00;99.90
27759;DHT22;15148;48.972;12.794;2024-02-15T23:49:40;4.90;99.90
27759;DHT22;15148;48.972;12.794;2024-02-15T23:54:42;4.90;99.90
27759;DHT22;15148;48.972;12.794;2024-02-15T23:59:44;4.90;99.90
